createdAt,value
2023-05-22T00:02:45.277Z,16.92
2023-05-22T00:09:05.157Z,16.84
2023-05-22T00:15:28.206Z,16.75
2023-05-22T00:21:48.140Z,16.65
2023-05-22T00:28:11.188Z,16.56
2023-05-22T00:34:31.204Z,16.51
2023-05-22T00:40:54.239Z,16.47
2023-05-22T00:47:14.157Z,16.41
2023-05-22T00:53:37.213Z,16.35
2023-05-22T00:59:57.151Z,16.28
2023-05-22T01:06:20.222Z,16.2
2023-05-22T01:12:40.204Z,16.1
2023-05-22T01:19:03.278Z,16.05
2023-05-22T01:25:23.182Z,15.98
2023-05-22T01:31:46.448Z,15.95
2023-05-22T01:38:06.185Z,15.95
2023-05-22T01:44:29.206Z,15.95
2023-05-22T01:50:49.228Z,15.97
2023-05-22T01:57:12.248Z,15.98
2023-05-22T02:03:32.254Z,15.94
2023-05-22T02:09:55.222Z,15.93
2023-05-22T02:16:15.193Z,15.88
2023-05-22T02:22:38.246Z,15.79
2023-05-22T02:28:58.252Z,15.72
2023-05-22T02:35:21.179Z,15.68
2023-05-22T02:41:41.201Z,15.62
2023-05-22T02:48:04.249Z,15.54
2023-05-22T02:54:24.168Z,15.48
2023-05-22T03:00:47.201Z,15.35
2023-05-22T03:07:07.341Z,15.25
2023-05-22T03:13:30.179Z,15.2
2023-05-22T03:19:50.164Z,15.17
2023-05-22T03:26:13.265Z,15.14
2023-05-22T03:32:33.197Z,15.03
2023-05-22T03:49:48.622Z,14.89
2023-05-22T03:56:08.412Z,14.89
2023-05-22T04:02:31.306Z,14.86
2023-05-22T04:08:51.188Z,14.83
2023-05-22T04:15:14.155Z,14.85
2023-05-22T04:21:34.556Z,14.9
2023-05-22T04:27:57.178Z,14.93
2023-05-22T04:34:17.165Z,14.96
2023-05-22T04:40:40.363Z,15
2023-05-22T04:47:00.257Z,15.01
2023-05-22T04:53:23.201Z,15.06
2023-05-22T04:59:43.156Z,15.08
2023-05-22T05:06:06.223Z,15.1
2023-05-22T05:12:26.175Z,15.18
2023-05-22T05:18:49.168Z,15.27
2023-05-22T05:25:10.922Z,15.33
2023-05-22T05:31:32.219Z,15.47
2023-05-22T05:37:52.182Z,15.62
2023-05-22T05:44:15.263Z,15.78
2023-05-22T05:50:35.174Z,15.99
2023-05-22T05:56:58.204Z,16.22
2023-05-22T06:03:18.249Z,16.48
2023-05-22T06:09:41.206Z,16.69
2023-05-22T06:16:02.929Z,16.9
2023-05-22T06:22:24.187Z,17.04
2023-05-22T06:28:44.185Z,17.1
2023-05-22T06:35:07.172Z,17.24
2023-05-22T06:41:27.208Z,17.44
2023-05-22T06:47:50.219Z,17.52
2023-05-22T06:54:10.180Z,17.6
2023-05-22T07:00:33.210Z,17.64
2023-05-22T07:06:53.180Z,17.7
2023-05-22T07:13:16.178Z,17.73
2023-05-22T07:19:36.555Z,17.73
2023-05-22T07:25:59.217Z,17.78
2023-05-22T07:32:19.226Z,17.73
2023-05-22T07:38:44.387Z,17.83
2023-05-22T07:46:28.719Z,17.96
2023-05-22T07:52:48.168Z,18.13
2023-05-22T07:59:11.182Z,18.42
2023-05-22T08:05:31.230Z,18.63
2023-05-22T08:11:54.199Z,18.66
2023-05-22T08:18:14.251Z,18.83
2023-05-22T08:24:37.190Z,19.01
2023-05-22T08:30:57.175Z,19.3
2023-05-22T08:37:20.320Z,19.47
2023-05-22T08:43:40.140Z,19.76
2023-05-22T08:50:03.171Z,20.04
2023-05-22T08:56:23.255Z,20.19
2023-05-22T09:02:46.192Z,20.24
2023-05-22T09:26:29.131Z,20.21
2023-05-22T09:32:49.191Z,20.54
2023-05-22T09:39:12.179Z,20.69
2023-05-22T09:45:32.202Z,20.85
2023-05-22T09:51:55.161Z,20.93
2023-05-22T09:58:15.285Z,20.96
2023-05-22T10:04:38.236Z,21.09
2023-05-22T10:10:58.186Z,21.21
2023-05-22T10:17:21.149Z,21.08
2023-05-22T10:23:41.286Z,21.05
2023-05-22T10:30:04.228Z,21.3
2023-05-22T10:36:24.167Z,21.2
2023-05-22T10:42:47.324Z,21.08
2023-05-22T10:49:07.160Z,21.01
2023-05-22T10:55:30.392Z,21.11
2023-05-22T11:01:50.350Z,21.23
2023-05-22T11:08:13.159Z,21.05
2023-05-22T11:14:33.189Z,21.23
2023-05-22T11:20:56.216Z,21.33
2023-05-22T11:27:16.187Z,21.26
2023-05-22T11:33:39.175Z,21.41
2023-05-22T11:39:59.284Z,21.29
2023-05-22T11:46:22.233Z,21.38
2023-05-22T11:52:42.168Z,21.87
2023-05-22T11:59:05.297Z,21.98
2023-05-22T12:05:25.175Z,22.1
2023-05-22T12:11:48.146Z,22.29
2023-05-22T12:18:08.357Z,22.13
2023-05-22T12:24:31.161Z,22.29
2023-05-22T12:30:51.171Z,22.54
2023-05-22T12:37:14.338Z,22.92
2023-05-22T12:43:34.163Z,22.97
2023-05-22T12:49:57.187Z,23.04
2023-05-22T12:56:17.297Z,23.31
2023-05-22T13:02:40.201Z,23.44
2023-05-22T13:09:00.178Z,23.45
2023-05-22T13:15:23.284Z,23.52
2023-05-22T13:21:43.211Z,23.43
2023-05-22T13:28:06.171Z,23.74
2023-05-22T13:34:26.322Z,23.61
2023-05-22T13:40:49.168Z,23.65
2023-05-22T13:47:09.211Z,23.87
2023-05-22T13:53:32.299Z,24.27
2023-05-22T13:59:52.373Z,24.51
2023-05-22T14:06:15.418Z,25.01
2023-05-22T14:12:35.600Z,24.94
2023-05-22T14:18:58.184Z,24.78
2023-05-22T14:25:18.192Z,25.1
2023-05-22T14:31:41.283Z,25.12
2023-05-22T14:38:01.147Z,25.13
2023-05-22T14:44:24.152Z,25.17
2023-05-22T14:50:44.272Z,25.22
2023-05-22T14:57:07.176Z,25.13
2023-05-22T15:03:27.158Z,25.05
2023-05-22T15:20:32.223Z,24.89
2023-05-22T15:26:52.152Z,24.95
2023-05-22T15:33:15.205Z,25.21
2023-05-22T15:39:35.307Z,25.26
2023-05-22T15:45:58.188Z,25.18
2023-05-22T15:52:18.465Z,25.24
2023-05-22T15:58:41.292Z,25.19
2023-05-22T16:05:01.232Z,25.24
2023-05-22T16:11:24.174Z,25.04
2023-05-22T16:17:44.289Z,25.18
2023-05-22T16:24:07.281Z,24.99
2023-05-22T16:30:27.172Z,24.4
2023-05-22T16:36:50.317Z,23.89
2023-05-22T16:43:10.158Z,23.45
2023-05-22T16:49:33.173Z,23.1
2023-05-22T16:55:53.310Z,22.87
2023-05-22T17:02:16.170Z,22.71
2023-05-22T17:08:36.310Z,22.61
2023-05-22T17:14:59.384Z,22.48
2023-05-22T17:21:19.147Z,22.35
2023-05-22T17:27:42.236Z,22.23
2023-05-22T17:34:02.397Z,22.32
2023-05-22T17:40:36.466Z,22.41
2023-05-22T17:46:45.191Z,22.36
2023-05-22T17:53:08.352Z,22.2
2023-05-22T17:59:28.201Z,22.21
2023-05-22T18:05:51.297Z,22.12
2023-05-22T18:12:18.175Z,22.02
2023-05-22T18:18:34.225Z,21.92
2023-05-22T18:24:54.266Z,21.77
2023-05-22T18:31:17.328Z,21.65
2023-05-22T18:37:37.154Z,21.57
2023-05-22T18:44:00.189Z,21.46
2023-05-22T18:50:22.162Z,21.38
2023-05-22T18:56:43.210Z,21.28
2023-05-22T19:03:03.194Z,21.15
2023-05-22T19:09:26.341Z,21.06
2023-05-22T19:15:46.190Z,20.95
2023-05-22T19:22:09.177Z,20.84
2023-05-22T19:28:29.281Z,20.72
2023-05-22T19:34:52.230Z,20.61
2023-05-22T19:41:12.181Z,20.51
2023-05-22T19:47:35.302Z,20.39
2023-05-22T19:53:55.164Z,20.27
2023-05-22T20:00:18.144Z,20.16
2023-05-22T20:06:38.298Z,20.05
2023-05-22T20:13:01.233Z,19.95
2023-05-22T20:19:21.158Z,19.86
2023-05-22T20:25:44.291Z,19.78
2023-05-22T20:32:04.214Z,19.74
2023-05-22T20:48:50.137Z,19.49
2023-05-22T20:55:10.206Z,19.38
2023-05-22T21:01:33.206Z,19.29
2023-05-22T21:07:53.299Z,19.21
2023-05-22T21:14:16.141Z,19.15
2023-05-22T21:20:36.145Z,19.09
2023-05-22T21:26:59.296Z,19.02
2023-05-22T21:33:19.145Z,18.94
2023-05-22T21:39:42.199Z,18.9
2023-05-22T21:46:02.298Z,18.87
2023-05-22T21:52:25.151Z,18.8
2023-05-22T21:58:45.178Z,18.73
2023-05-22T22:21:43.267Z,18.39
2023-05-22T22:28:03.190Z,18.35
2023-05-22T22:34:26.145Z,18.28
2023-05-22T22:40:46.296Z,18.2
2023-05-22T22:47:09.172Z,18.13
2023-05-22T22:53:29.190Z,18.04
2023-05-22T22:59:52.265Z,17.94
2023-05-22T23:06:12.200Z,17.81
2023-05-22T23:12:35.197Z,17.74
2023-05-22T23:18:55.311Z,17.6
2023-05-22T23:25:18.163Z,17.52
2023-05-22T23:31:38.217Z,17.46
2023-05-22T23:38:01.271Z,17.41
2023-05-22T23:44:21.201Z,17.36
2023-05-22T23:50:44.171Z,17.31
2023-05-22T23:57:04.290Z,17.27
